Sparta, MI (49345)

6:01 AM EST on February 11, 2016 (GMT -0500)
Seasons Change Services LLC | | Change Station
CLOSE
Current Station
Personal Weather Station
Location: Sparta, MI
Elevation: 761 ft
Nearby Weather Stations

Elev 761 ft 43.16 °N, 85.70 °W | Updated 2 seconds ago

Mostly Cloudy
Mostly Cloudy
14.5 °F
Feels Like 6 °F
N
5.8
Wind Variable Wind from WSW
Gusts 7.4 mph

Today
High -- | Low -- °F
--% Chance of Precip.
Yesterday
High -- | Low -- °F
Precip. -- in
Pressure 30.18 in
Visibility 10.0 miles
Clouds Mostly Cloudy 4800 ft
Windchill 6 °F
Dew Point 2 °F
Humidity 57%
Rainfall 0.00 in
Snow Depth Not available.
7:46 AM 6:07 PM
Waxing Crescent, 11% visible
METAR KGRR 111053Z 33007KT 10SM BKN048 M09/M14 A3013 RMK AO2 SLP219 FIRST AUGMENTED OBS OF THE DAY T10941144
Pressure 30.18 in
Visibility 10.0 miles
Clouds Mostly Cloudy 4800 ft
Windchill 6 °F
Dew Point 2 °F
Humidity 57%
Rainfall 0.00 in
Snow Depth Not available.
7:46 AM 6:07 PM
Waxing Crescent, 11% visible
METAR KGRR 111053Z 33007KT 10SM BKN048 M09/M14 A3013 RMK AO2 SLP219 FIRST AUGMENTED OBS OF THE DAY T10941144

10-Day Weather Forecast

Almanac

Astronomy

Feb. 11, 2016 Rise Set
Actual Time
Civil Twilight
Nautical Twilight
Astronomical Twilight
Moon
Length of Visible Light
Length of Day
Tomorrow will be .
, % of the Moon is Illuminated

Today's Extremes

State Highs State Lows

Community

WunderPhotos

Upload Photos

1,892,030 photos uploaded!

WunderBlog® & News

Nearby

Air Quality

  Air Quality AQ Index Pollutant
Not available.

Snow Depth

Station Depth Elevation

Earthquake Activity

City Distance Mag. Time & Date
Minimum magnitude displayed is 2.5.

Coastal Water Temperatures

Place Temperature

Stations

Nearby Weather Stations

Station Location Temp. Windchill Dew Point Humidity Wind Precip. Elev Updated Type
                   

Watches & Warnings

There are currently no watches in effect.